Terminal Aerodrome Forecast
Issued by NWS Paducah, KY

Home | Current Version | Previous Version | Text Only | Print | Product List | Glossary On
Versions: 1 2 3 4 5 6 7 8 9 10 11 12 13
460
FTUS43 KPAH 240520
TAFEVV
TAF
KEVV 240520Z 2406/2506 32003KT P6SM OVC080
      TEMPO 2406/2409 -RA BKN050
     FM240900 33003KT 6SM -RA BR SCT015 BKN035
     FM241300 31007KT 4SM -RA BR SCT007 OVC015
     FM242300 27007KT P6SM OVC025=

USA.gov is the U.S. government's official web portal to all federal, state and local government web resources and services.